Time;durP1;ratioP1;P1;durP2;ratioP2;P2;SDS_P1;SDS_P2;PMS_P1;PMS_P2;Temp;Humidity;BMP_temperature;BMP_pressure;BME280_temperature;BME280_humidity;BME280_pressure;Samples;Min_cycle;Max_cycle;Signal;HPM_P1;HPM_P2
2024/02/21 00:02:05;;;;;;;2.50;2.03;;;13.20;91.30;;;;;;5051271;28;20060;-71
2024/02/21 00:05:10;;;;;;;3.30;2.33;;;;;;;;;;5051142;28;20192;-71
2024/02/21 00:08:14;;;;;;;3.47;2.30;;;;;;;;;;5051097;28;20033;-71
2024/02/21 00:11:18;;;;;;;4.93;2.47;;;13.10;92.00;;;;;;5051505;28;20041;-71
2024/02/21 00:14:22;;;;;;;5.63;2.75;;;13.20;91.80;;;;;;5051389;28;20044;-71
2024/02/21 00:17:26;;;;;;;3.83;2.60;;;;;;;;;;5051395;28;20436;-72
2024/02/21 00:20:31;;;;;;;3.55;2.40;;;;;;;;;;5051094;28;20089;-71
2024/02/21 00:23:34;;;;;;;3.45;2.42;;;13.00;91.70;;;;;;5050070;28;20033;-70
2024/02/21 00:26:39;;;;;;;3.35;2.42;;;;;;;;;;5051108;28;20052;-70
2024/02/21 00:29:43;;;;;;;4.18;2.35;;;;;;;;;;5050805;28;20029;-70
2024/02/21 00:32:47;;;;;;;4.85;2.40;;;;;;;;;;5050347;28;20037;-71
2024/02/21 00:35:52;;;;;;;6.47;2.40;;;;;;;;;;5050405;28;20389;-70
2024/02/21 00:38:56;;;;;;;4.38;2.45;;;;;;;;;;5050871;28;20037;-70
2024/02/21 00:42:01;;;;;;;4.00;2.55;;;;;;;;;;5051132;28;20041;-71
2024/02/21 00:45:05;;;;;;;5.03;2.22;;;;;;;;;;5050900;28;20037;-70
2024/02/21 00:48:09;;;;;;;4.15;2.50;;;;;;;;;;5050160;28;20037;-69
2024/02/21 00:51:13;;;;;;;3.50;2.42;;;13.00;90.70;;;;;;5051514;28;20358;-71
2024/02/21 00:54:18;;;;;;;4.65;2.22;;;;;;;;;;5051352;28;20504;-71
2024/02/21 00:57:22;;;;;;;3.97;1.83;;;13.00;90.30;;;;;;5051195;28;20033;-71
2024/02/21 01:00:26;;;;;;;3.15;2.00;;;;;;;;;;5049992;28;20064;-70
2024/02/21 01:03:30;;;;;;;5.22;2.13;;;12.90;90.40;;;;;;5051065;28;20041;-71
2024/02/21 01:06:34;;;;;;;3.40;2.33;;;;;;;;;;5050959;28;20052;-70
2024/02/21 01:09:39;;;;;;;3.47;2.22;;;;;;;;;;5050956;28;20032;-71
2024/02/21 01:12:43;;;;;;;4.15;2.65;;;;;;;;;;5051026;28;20485;-70
2024/02/21 01:15:47;;;;;;;4.80;2.60;;;;;;;;;;5051120;28;20354;-70
2024/02/21 01:18:51;;;;;;;3.78;2.78;;;;;;;;;;5050692;28;20037;-71
2024/02/21 01:21:56;;;;;;;4.28;3.08;;;;;;;;;;5051156;28;20374;-70
2024/02/21 01:25:00;;;;;;;4.85;3.60;;;;;;;;;;5050820;28;20053;-71
2024/02/21 01:28:04;;;;;;;9.88;3.58;;;11.50;90.70;;;;;;5050176;28;20041;-71
2024/02/21 01:31:09;;;;;;;5.53;3.35;;;12.60;91.50;;;;;;5049891;28;20389;-71
2024/02/21 01:34:13;;;;;;;5.95;4.22;;;11.50;91.70;;;;;;5051328;28;20040;-71
2024/02/21 01:37:17;;;;;;;4.97;3.80;;;11.50;91.90;;;;;;5053381;28;20385;-71
2024/02/21 01:40:21;;;;;;;7.18;4.50;;;;;;;;;;5054265;28;20154;-71
2024/02/21 01:43:26;;;;;;;5.13;4.15;;;;;;;;;;5053854;28;20373;-71
2024/02/21 01:46:30;;;;;;;5.50;4.10;;;;;;;;;;5053929;28;20049;-71
2024/02/21 01:49:35;;;;;;;7.03;4.32;;;;;;;;;;5054024;28;20033;-71
2024/02/21 01:52:39;;;;;;;8.32;4.95;;;12.50;91.80;;;;;;5041818;28;20041;-70
2024/02/21 01:55:45;;;;;;;9.45;5.30;;;12.40;91.90;;;;;;5052809;28;20048;-70
2024/02/21 01:58:50;;;;;;;9.45;5.55;;;10.80;92.20;;;;;;5053125;28;20078;-69
2024/02/21 02:01:56;;;;;;;11.05;6.47;;;12.00;92.60;;;;;;5053616;28;20400;-70
2024/02/21 02:05:01;;;;;;;10.45;6.65;;;12.00;92.60;;;;;;5053807;28;20044;-70
2024/02/21 02:08:06;;;;;;;9.43;6.68;;;12.00;92.70;;;;;;5052719;28;20044;-70
2024/02/21 02:11:13;;;;;;;9.85;6.45;;;11.90;93.00;;;;;;5053416;28;20040;-70
2024/02/21 02:14:16;;;;;;;9.70;6.68;;;11.30;92.80;;;;;;5052898;28;20072;-70
2024/02/21 02:17:21;;;;;;;8.20;6.00;;;11.60;93.30;;;;;;5053531;28;20047;-70
2024/02/21 02:20:25;;;;;;;11.68;6.57;;;;;;;;;;5052217;28;20044;-71
2024/02/21 02:23:31;;;;;;;12.52;6.75;;;11.80;93.20;;;;;;5053482;28;20041;-71
2024/02/21 02:26:35;;;;;;;10.48;6.43;;;12.00;93.00;;;;;;5053103;28;20060;-71
2024/02/21 02:29:39;;;;;;;11.18;6.97;;;11.70;93.30;;;;;;5052041;28;20040;-70
2024/02/21 02:32:46;;;;;;;12.18;6.30;;;11.70;93.80;;;;;;5052154;28;20423;-70
2024/02/21 02:35:50;;;;;;;9.60;6.85;;;11.60;94.00;;;;;;5053306;28;20207;-70
2024/02/21 02:38:54;;;;;;;9.85;6.68;;;11.60;94.20;;;;;;5051983;28;20052;-71
2024/02/21 02:41:58;;;;;;;11.13;6.07;;;11.50;94.20;;;;;;5053090;28;20524;-69
2024/02/21 02:45:03;;;;;;;13.35;6.60;;;11.50;94.30;;;;;;5053081;28;20052;-70
2024/02/21 02:48:07;;;;;;;9.25;6.50;;;11.40;94.40;;;;;;5052903;28;20067;-70
2024/02/21 02:51:11;;;;;;;9.38;5.93;;;11.40;94.80;;;;;;5052945;28;20484;-70
2024/02/21 02:54:15;;;;;;;11.00;6.63;;;11.40;94.70;;;;;;5051811;28;20044;-70
2024/02/21 02:57:19;;;;;;;15.48;7.00;;;11.20;95.00;;;;;;5052811;28;20044;-70
2024/02/21 03:00:23;;;;;;;12.15;6.97;;;11.30;94.70;;;;;;5052581;28;20048;-70
2024/02/21 03:03:27;;;;;;;13.23;6.22;;;11.30;94.80;;;;;;5052938;28;20052;-70
2024/02/21 03:06:31;;;;;;;15.98;6.55;;;11.40;94.80;;;;;;5052590;28;20056;-70
2024/02/21 03:09:34;;;;;;;9.60;6.15;;;11.30;94.70;;;;;;5052326;28;20040;-70
2024/02/21 03:12:39;;;;;;;11.23;5.80;;;11.30;94.50;;;;;;5052426;28;20416;-69
2024/02/21 03:15:43;;;;;;;9.48;5.35;;;11.30;94.50;;;;;;5052305;28;20048;-70
2024/02/21 03:18:48;;;;;;;11.35;5.75;;;11.30;94.20;;;;;;5052269;28;20394;-69
2024/02/21 03:21:52;;;;;;;12.85;6.55;;;11.30;94.30;;;;;;5052337;28;20056;-70
2024/02/21 03:24:57;;;;;;;9.18;6.53;;;11.60;95.10;;;;;;5052053;28;20048;-70
2024/02/21 03:28:01;;;;;;;9.85;6.38;;;11.00;94.30;;;;;;5052204;28;20052;-71
2024/02/21 03:31:06;;;;;;;9.25;6.78;;;12.50;94.60;;;;;;5051831;28;20048;-71
2024/02/21 03:34:13;;;;;;;12.55;6.78;;;12.60;95.70;;;;;;5052066;28;20044;-71
2024/02/21 03:37:16;;;;;;;10.10;6.97;;;12.70;96.10;;;;;;5051963;28;20048;-71
2024/02/21 03:40:20;;;;;;;9.57;7.40;;;10.80;94.90;;;;;;5051038;28;20056;-71
2024/02/21 03:43:24;;;;;;;11.20;6.78;;;12.20;95.70;;;;;;5051900;28;20384;-70
2024/02/21 03:46:28;;;;;;;10.43;6.80;;;12.20;96.00;;;;;;5051645;28;20064;-70
2024/02/21 03:49:32;;;;;;;9.93;6.78;;;12.20;95.70;;;;;;5051774;28;20040;-69
2024/02/21 03:52:36;;;;;;;9.88;6.72;;;11.40;95.60;;;;;;5051512;28;20047;-70
2024/02/21 03:55:40;;;;;;;10.00;7.13;;;12.70;95.80;;;;;;5050876;28;20052;-70
2024/02/21 03:58:44;;;;;;;13.82;7.13;;;9.20;95.30;;;;;;5051209;28;20047;-70
2024/02/21 04:01:54;;;;;;;11.77;8.20;;;12.70;96.10;;;;;;5051508;28;20048;-70
2024/02/21 04:04:59;;;;;;;13.70;8.32;;;;;;;;;;5051813;28;20138;-70
2024/02/21 04:08:06;;;;;;;10.63;7.18;;;12.60;96.00;;;;;;5051362;28;20506;-69
2024/02/21 04:11:10;;;;;;;11.93;7.32;;;10.50;94.50;;;;;;5051390;28;20051;-69
2024/02/21 04:14:14;;;;;;;10.45;7.15;;;10.50;95.10;;;;;;5051092;28;20392;-70
2024/02/21 04:17:18;;;;;;;10.18;7.45;;;10.30;94.10;;;;;;5051336;28;20055;-70
2024/02/21 04:20:22;;;;;;;15.73;7.45;;;10.10;94.50;;;;;;5051126;28;20492;-70
2024/02/21 04:23:26;;;;;;;11.13;7.50;;;8.70;95.80;;;;;;5051222;28;20052;-71
2024/02/21 04:26:30;;;;;;;10.43;6.65;;;10.40;96.00;;;;;;5050833;28;20060;-70
2024/02/21 04:29:34;;;;;;;11.70;7.22;;;9.00;95.50;;;;;;5050848;28;20047;-71
2024/02/21 04:32:39;;;;;;;9.98;7.60;;;8.70;95.90;;;;;;5050905;28;20047;-70
2024/02/21 04:35:42;;;;;;;11.10;7.18;;;8.90;95.70;;;;;;5051235;28;20044;-70
2024/02/21 04:38:46;;;;;;;10.38;7.05;;;11.50;96.40;;;;;;5051117;28;20047;-70
2024/02/21 04:41:50;;;;;;;9.10;6.93;;;10.70;96.60;;;;;;5051225;28;20496;-71
2024/02/21 04:44:54;;;;;;;10.15;6.47;;;8.40;95.90;;;;;;5050935;28;20051;-71
2024/02/21 04:47:58;;;;;;;11.25;7.35;;;13.30;97.20;;;;;;5050122;28;20056;-70
2024/02/21 04:51:02;;;;;;;24.63;7.88;;;8.70;96.00;;;;;;5050965;28;20139;-70
2024/02/21 04:54:07;;;;;;;12.88;7.03;;;9.90;96.30;;;;;;5051020;28;20048;-70
2024/02/21 04:57:11;;;;;;;16.02;6.40;;;9.50;96.20;;;;;;5050099;28;20043;-70
2024/02/21 05:00:17;;;;;;;21.65;8.07;;;10.10;96.50;;;;;;5050557;28;20064;-70
2024/02/21 05:03:22;;;;;;;12.82;7.90;;;10.10;96.60;;;;;;5050830;28;20044;-70
2024/02/21 05:06:26;;;;;;;18.45;7.57;;;10.20;95.50;;;;;;5050576;28;20051;-70
2024/02/21 05:09:30;;;;;;;17.48;7.10;;;9.20;96.20;;;;;;5052119;28;20095;-70
2024/02/21 05:12:34;;;;;;;12.23;8.27;;;10.30;96.30;;;;;;5055140;28;20056;-71
2024/02/21 05:15:37;;;;;;;13.85;7.78;;;9.20;95.80;;;;;;5054453;28;20044;-70
2024/02/21 05:18:42;;;;;;;16.58;7.70;;;10.00;95.00;;;;;;5054370;28;20039;-70
2024/02/21 05:21:46;;;;;;;16.70;7.78;;;8.70;95.50;;;;;;5054375;28;20036;-70
2024/02/21 05:24:50;;;;;;;18.38;8.30;;;10.00;94.50;;;;;;5054684;28;20052;-71
2024/02/21 05:27:55;;;;;;;15.18;8.43;;;9.30;96.40;;;;;;5054397;28;20540;-70
2024/02/21 05:30:59;;;;;;;18.83;10.18;;;8.40;96.40;;;;;;5054193;28;20041;-70
2024/02/21 05:34:04;;;;;;;17.75;8.90;;;9.80;95.40;;;;;;5054323;28;20404;-69
2024/02/21 05:37:08;;;;;;;19.95;8.73;;;10.60;95.80;;;;;;5054102;28;20048;-70
2024/02/21 05:40:13;;;;;;;19.73;8.70;;;9.60;97.00;;;;;;5053809;28;20044;-70
2024/02/21 05:43:17;;;;;;;18.67;9.68;;;;;;;;;;5054229;28;20044;-70
2024/02/21 05:46:21;;;;;;;21.75;8.00;;;12.00;96.70;;;;;;5053133;28;20049;-70
2024/02/21 05:49:24;;;;;;;23.17;9.77;;;10.10;96.30;;;;;;5053025;28;20052;-70
2024/02/21 05:52:28;;;;;;;17.50;9.60;;;9.10;96.60;;;;;;5054078;28;20408;-70
2024/02/21 05:55:33;;;;;;;25.52;11.05;;;;;;;;;;5053454;28;20599;-70
2024/02/21 05:58:37;;;;;;;26.20;10.32;;;8.90;96.00;;;;;;5053673;28;20052;-70
2024/02/21 06:01:41;;;;;;;25.20;10.63;;;9.90;94.90;;;;;;5053644;28;20064;-71
2024/02/21 06:04:46;;;;;;;22.55;10.57;;;10.00;95.30;;;;;;5053943;28;20048;-70
2024/02/21 06:07:50;;;;;;;20.15;9.93;;;8.50;96.20;;;;;;5053876;28;20404;-70
2024/02/21 06:10:55;;;;;;;20.77;9.20;;;11.90;97.00;;;;;;5053751;28;20085;-71
2024/02/21 06:13:58;;;;;;;24.20;10.68;;;12.00;97.40;;;;;;5054025;28;20044;-70
2024/02/21 06:17:03;;;;;;;26.75;10.18;;;10.40;96.90;;;;;;5052588;28;20044;-70
2024/02/21 06:20:08;;;;;;;21.30;8.80;;;9.30;95.20;;;;;;5053347;28;20571;-70
2024/02/21 06:23:13;;;;;;;27.80;10.45;;;9.00;95.10;;;;;;5053582;28;20044;-71
2024/02/21 06:26:17;;;;;;;17.88;9.55;;;10.00;94.50;;;;;;5053234;28;20560;-71
2024/02/21 06:29:21;;;;;;;30.38;10.98;;;11.30;93.70;;;;;;5053291;28;20043;-71
2024/02/21 06:32:25;;;;;;;28.25;10.48;;;11.60;92.80;;;;;;5053250;28;20040;-70
2024/02/21 06:35:29;;;;;;;22.85;9.23;;;11.90;92.80;;;;;;5053219;28;20051;-70
2024/02/21 06:38:34;;;;;;;29.17;9.27;;;12.40;91.70;;;;;;5053144;28;20059;-68
2024/02/21 06:41:38;;;;;;;31.83;9.77;;;12.70;91.70;;;;;;5052741;28;20040;-68
2024/02/21 06:44:43;;;;;;;14.82;6.05;;;12.80;91.50;;;;;;5053084;28;20504;-69
2024/02/21 06:47:47;;;;;;;10.25;3.70;;;13.10;91.30;;;;;;5052666;28;20056;-67
2024/02/21 06:50:51;;;;;;;6.85;4.05;;;13.50;88.80;;;;;;5052990;28;20052;-68
2024/02/21 06:53:55;;;;;;;15.95;5.35;;;12.60;84.10;;;;;;5052928;28;20044;-68
2024/02/21 06:57:00;;;;;;;7.85;3.30;;;;;;;;;;5052442;28;20044;-68
2024/02/21 07:00:07;;;;;;;12.35;3.63;;;;;;;;;;5052166;28;20053;-69
2024/02/21 07:03:11;;;;;;;18.38;3.53;;;;;;;;;;5052485;28;20040;-67
2024/02/21 07:06:16;;;;;;;6.88;2.95;;;;;;;;;;5052196;28;20044;-68
2024/02/21 07:09:20;;;;;;;4.25;1.88;;;;;;;;;;5052388;28;20033;-68
2024/02/21 07:12:24;;;;;;;8.60;2.67;;;;;;;;;;5052753;28;20104;-69
2024/02/21 07:15:30;;;;;;;8.50;2.85;;;;;;;;;;5052376;28;20037;-67
2024/02/21 07:18:34;;;;;;;5.10;1.95;;;;;;;;;;5052437;28;20044;-68
2024/02/21 07:21:41;;;;;;;4.32;1.80;;;;;;;;;;5052103;28;20378;-67
2024/02/21 07:24:46;;;;;;;6.70;2.17;;;;;;;;;;5052968;28;20037;-74
2024/02/21 07:27:50;;;;;;;5.97;2.30;;;;;;;;;;5053661;28;20045;-73
2024/02/21 07:30:55;;;;;;;13.02;2.58;;;;;;;;;;5051462;28;20028;-71
2024/02/21 07:33:59;;;;;;;7.70;2.83;;;;;;;;;;5052277;28;20048;-72
2024/02/21 07:37:03;;;;;;;9.77;2.83;;;;;;;;;;5052636;28;20037;-73
2024/02/21 07:40:14;;;;;;;3.65;1.80;;;16.20;79.30;;;;;;5052370;28;20053;-75
2024/02/21 07:43:18;;;;;;;9.48;2.05;;;;;;;;;;5041033;28;20488;-83
2024/02/21 07:46:22;;;;;;;6.38;1.83;;;;;;;;;;5053680;28;20032;-74
2024/02/21 07:49:27;;;;;;;4.22;1.92;;;;;;;;;;5054737;28;20045;-77
2024/02/21 07:52:32;;;;;;;7.13;2.70;;;;;;;;;;5054579;28;20036;-76
2024/02/21 07:55:36;;;;;;;3.22;2.00;;;;;;;;;;5051346;28;20037;-69
2024/02/21 07:58:40;;;;;;;6.25;2.03;;;;;;;;;;5049957;28;20033;-70
2024/02/21 08:01:44;;;;;;;3.40;1.73;;;;;;;;;;5050345;28;20045;-69
2024/02/21 08:04:49;;;;;;;7.40;1.80;;;;;;;;;;5050856;28;20037;-69
2024/02/21 08:07:53;;;;;;;9.63;2.20;;;;;;;;;;5050741;28;20048;-68
2024/02/21 08:10:58;;;;;;;7.35;1.90;;;;;;;;;;5051421;28;20037;-67
2024/02/21 08:14:03;;;;;;;3.00;1.75;;;;;;;;;;5051182;28;20378;-70
2024/02/21 08:17:07;;;;;;;8.93;2.15;;;;;;;;;;5051093;28;20037;-70
2024/02/21 08:20:11;;;;;;;5.97;1.60;;;;;;;;;;5051212;28;20045;-69
2024/02/21 08:23:19;;;;;;;7.70;2.20;;;16.20;79.50;;;;;;5051297;28;20029;-71
2024/02/21 08:26:23;;;;;;;5.60;1.67;;;;;;;;;;5050790;28;20557;-68
2024/02/21 08:29:27;;;;;;;3.33;2.10;;;;;;;;;;5051318;28;20033;-70
2024/02/21 08:32:32;;;;;;;9.60;2.22;;;;;;;;;;5050240;28;20045;-69
2024/02/21 08:35:36;;;;;;;4.50;2.22;;;;;;;;;;5051325;28;20036;-70
2024/02/21 08:38:40;;;;;;;9.52;3.17;;;;;;;;;;5050462;28;20370;-70
2024/02/21 08:41:44;;;;;;;4.03;2.10;;;;;;;;;;5051128;28;20045;-71
2024/02/21 08:44:49;;;;;;;7.30;2.08;;;;;;;;;;5052696;28;20037;-69
2024/02/21 08:47:53;;;;;;;5.35;2.03;;;;;;;;;;5054995;28;20053;-70
2024/02/21 08:50:57;;;;;;;4.53;1.88;;;;;;;;;;5054737;28;20033;-69
2024/02/21 08:54:02;;;;;;;6.30;1.90;;;;;;;;;;5054829;28;20049;-69
2024/02/21 08:57:06;;;;;;;5.40;2.08;;;;;;;;;;5054758;28;20041;-68
2024/02/21 09:00:12;;;;;;;7.03;2.03;;;;;;;;;;5054712;28;20053;-69
2024/02/21 09:03:19;;;;;;;6.10;2.03;;;;;;;;;;5054108;28;20485;-69
2024/02/21 09:06:23;;;;;;;3.97;2.08;;;;;;;;;;5053966;28;20630;-70
2024/02/21 09:09:28;;;;;;;4.90;2.40;;;;;;;;;;5053887;28;20048;-70
2024/02/21 09:12:33;;;;;;;7.10;2.10;;;;;;;;;;5054328;28;20382;-68
2024/02/21 09:15:37;;;;;;;4.20;2.03;;;;;;;;;;5053665;28;20037;-69
2024/02/21 09:18:42;;;;;;;4.57;2.25;;;;;;;;;;5054684;28;20476;-69
2024/02/21 09:21:46;;;;;;;5.50;2.70;;;;;;;;;;5054058;28;20369;-68
2024/02/21 09:24:50;;;;;;;5.82;2.03;;;;;;;;;;5053918;28;20033;-70
2024/02/21 09:27:55;;;;;;;8.00;2.20;;;;;;;;;;5054295;28;20053;-69
2024/02/21 09:30:59;;;;;;;12.00;2.45;;;;;;;;;;5054777;28;20036;-68
2024/02/21 09:34:04;;;;;;;23.50;3.25;;;;;;;;;;5054812;28;20033;-69
2024/02/21 09:37:08;;;;;;;5.22;1.88;;;;;;;;;;5054407;28;20044;-71
2024/02/21 09:40:17;;;;;;;6.78;2.60;;;19.90;80.20;;;;;;5055006;28;20377;-70
2024/02/21 09:43:21;;;;;;;6.25;2.20;;;;;;;;;;5054572;28;20048;-71
2024/02/21 09:47:06;;;;;;;6.97;2.28;;;16.90;78.60;;;;;;5054434;28;20053;-68
2024/02/21 09:50:10;;;;;;;5.18;2.53;;;17.20;78.40;;;;;;5053511;28;20052;-69
2024/02/21 09:53:15;;;;;;;5.88;2.20;;;;;;;;;;5054012;28;20048;-71
2024/02/21 09:56:19;;;;;;;7.32;3.00;;;;;;;;;;5053172;28;20606;-69
2024/02/21 09:59:24;;;;;;;6.03;2.15;;;17.00;77.80;;;;;;5053157;28;20033;-69
2024/02/21 10:02:29;;;;;;;8.88;2.83;;;;;;;;;;5053305;28;20048;-69
2024/02/21 10:05:33;;;;;;;6.72;2.83;;;;;;;;;;5053811;28;20033;-70
2024/02/21 10:08:37;;;;;;;8.90;2.60;;;;;;;;;;5053959;28;20045;-72
2024/02/21 10:11:42;;;;;;;3.90;2.13;;;;;;;;;;5053599;28;20374;-70
2024/02/21 10:14:46;;;;;;;9.25;2.72;;;;;;;;;;5053701;28;20374;-70
2024/02/21 10:17:59;;;;;;;5.13;2.58;;;15.80;77.70;;;;;;5053500;28;20037;-69
2024/02/21 10:21:07;;;;;;;5.30;2.40;;;17.60;78.00;;;;;;5052748;28;20649;-70
2024/02/21 10:24:12;;;;;;;4.90;2.92;;;17.70;78.80;;;;;;5053514;28;20056;-69
2024/02/21 10:27:16;;;;;;;3.67;2.00;;;;;;;;;;5053368;28;20052;-70
2024/02/21 10:30:21;;;;;;;2.70;2.10;;;;;;;;;;5053191;28;20370;-70
2024/02/21 10:33:27;;;;;;;6.88;2.40;;;;;;;;;;5052356;28;20041;-69
2024/02/21 10:36:32;;;;;;;17.20;3.08;;;;;;;;;;5053095;28;20037;-74
2024/02/21 10:39:41;;;;;;;4.82;2.10;;;18.20;76.80;;;;;;5053712;28;20397;-71
2024/02/21 10:42:46;;;;;;;4.80;2.30;;;;;;;;;;5053247;28;20428;-72
2024/02/21 10:45:52;;;;;;;5.88;2.20;;;18.00;77.00;;;;;;5052790;28;20045;-71
2024/02/21 10:49:09;;;;;;;6.38;2.47;;;18.20;77.70;;;;;;5053141;28;20587;-71
2024/02/21 10:52:27;;;;;;;4.97;2.65;;;18.10;75.90;;;;;;5053530;28;20047;-69
2024/02/21 10:55:41;;;;;;;5.15;2.67;;;18.30;76.40;;;;;;5052550;28;20056;-69
2024/02/21 10:58:46;;;;;;;9.20;2.92;;;16.70;75.50;;;;;;5052832;28;20480;-71
2024/02/21 11:01:52;;;;;;;5.95;2.22;;;;;;;;;;5052864;28;20051;-72
2024/02/21 11:04:56;;;;;;;5.95;2.60;;;;;;;;;;5053134;28;20040;-74
2024/02/21 11:08:00;;;;;;;5.22;2.33;;;;;;;;;;5052446;28;20045;-76
2024/02/21 11:11:05;;;;;;;9.45;2.45;;;18.50;76.10;;;;;;5053273;28;20048;-72
2024/02/21 11:14:20;;;;;;;5.85;2.40;;;18.30;75.90;;;;;;5052026;28;20405;-73
2024/02/21 11:17:26;;;;;;;5.97;2.72;;;;;;;;;;5052539;28;20067;-72
2024/02/21 11:20:37;;;;;;;4.53;2.33;;;18.20;73.90;;;;;;5052898;28;20044;-72
2024/02/21 11:23:42;;;;;;;3.65;2.15;;;;;;;;;;5052658;28;20039;-70
2024/02/21 11:26:49;;;;;;;5.13;2.60;;;18.20;76.70;;;;;;5051984;28;20037;-70
2024/02/21 11:29:59;;;;;;;4.95;2.53;;;18.20;74.60;;;;;;5050844;28;20040;-69
2024/02/21 11:33:04;;;;;;;4.22;2.05;;;;;;;;;;5052717;28;20040;-72
2024/02/21 11:36:09;;;;;;;4.40;2.53;;;;;;;;;;5052622;28;20036;-73
2024/02/21 11:39:13;;;;;;;3.58;2.35;;;;;;;;;;5052783;28;20029;-73
2024/02/21 11:42:18;;;;;;;5.07;2.60;;;;;;;;;;5052357;28;20476;-71
2024/02/21 11:45:27;;;;;;;3.60;2.13;;;18.50;74.30;;;;;;5051698;28;20036;-72
2024/02/21 11:48:32;;;;;;;3.33;2.30;;;;;;;;;;5051193;28;20119;-72
2024/02/21 11:51:36;;;;;;;3.25;2.30;;;;;;;;;;5051699;28;20047;-77
2024/02/21 11:54:41;;;;;;;2.28;1.73;;;;;;;;;;5051727;28;20476;-71
2024/02/21 11:57:45;;;;;;;4.30;2.03;;;;;;;;;;5050390;28;20500;-72
2024/02/21 12:00:50;;;;;;;3.95;2.15;;;;;;;;;;5051281;28;20048;-71
2024/02/21 12:03:56;;;;;;;3.90;2.28;;;18.30;72.90;;;;;;5051318;28;20036;-71
2024/02/21 12:07:00;;;;;;;3.80;2.08;;;;;;;;;;5049993;28;20123;-72
2024/02/21 12:10:13;;;;;;;4.10;2.28;;;16.90;71.30;;;;;;5050076;28;20052;-70
2024/02/21 12:13:18;;;;;;;3.67;2.27;;;;;;;;;;5052195;28;20468;-73
2024/02/21 12:16:22;;;;;;;6.90;2.72;;;;;;;;;;5051804;28;20037;-72
2024/02/21 12:19:26;;;;;;;8.63;2.45;;;;;;;;;;5049880;28;20045;-71
2024/02/21 12:22:32;;;;;;;11.75;2.70;;;;;;;;;;5050348;28;20545;-69
2024/02/21 12:25:36;;;;;;;3.70;2.10;;;;;;;;;;5049819;28;20044;-71
2024/02/21 12:28:40;;;;;;;2.78;2.10;;;;;;;;;;5050575;28;20049;-71
2024/02/21 12:31:45;;;;;;;3.22;2.17;;;;;;;;;;5050345;28;20037;-71
2024/02/21 12:34:49;;;;;;;4.32;2.00;;;;;;;;;;5050724;28;20037;-72
2024/02/21 12:37:53;;;;;;;5.43;2.40;;;;;;;;;;5049952;28;20041;-70
2024/02/21 12:40:58;;;;;;;5.43;2.42;;;;;;;;;;5051146;28;20033;-71
2024/02/21 12:44:03;;;;;;;7.32;3.22;;;;;;;;;;5051190;28;20045;-70
2024/02/21 12:47:08;;;;;;;8.43;2.60;;;;;;;;;;5050949;28;20064;-71
2024/02/21 12:50:12;;;;;;;4.72;2.42;;;;;;;;;;5051333;28;20378;-72
2024/02/21 12:53:16;;;;;;;3.90;2.58;;;;;;;;;;5051401;28;20041;-71
2024/02/21 12:56:20;;;;;;;3.60;2.40;;;;;;;;;;5051110;28;20037;-71
2024/02/21 12:59:25;;;;;;;7.32;2.90;;;;;;;;;;5051055;28;20041;-71
2024/02/21 13:02:30;;;;;;;4.53;2.78;;;;;;;;;;5051410;28;20029;-71
2024/02/21 13:05:35;;;;;;;7.80;3.22;;;;;;;;;;5051873;28;20037;-72
2024/02/21 13:08:39;;;;;;;7.28;2.13;;;;;;;;;;5051416;28;20049;-72
2024/02/21 13:11:46;;;;;;;4.15;2.28;;;;;;;;;;5050985;28;20037;-76
2024/02/21 13:14:50;;;;;;;6.32;2.08;;;;;;;;;;5051391;28;20041;-73
2024/02/21 13:17:57;;;;;;;5.85;2.53;;;18.10;72.10;;;;;;5051192;28;20036;-70
2024/02/21 13:21:01;;;;;;;7.22;2.55;;;;;;;;;;5050943;28;20116;-72
2024/02/21 13:24:05;;;;;;;2.95;1.92;;;;;;;;;;5050693;28;20037;-69
2024/02/21 13:27:10;;;;;;;5.25;2.20;;;;;;;;;;5050871;28;20049;-72
2024/02/21 13:30:15;;;;;;;4.18;2.08;;;;;;;;;;5051753;28;20393;-72
2024/02/21 13:33:20;;;;;;;3.15;2.10;;;;;;;;;;5054853;28;20382;-69
2024/02/21 13:36:24;;;;;;;6.95;2.42;;;;;;;;;;5054370;28;20136;-71
2024/02/21 13:39:29;;;;;;;5.35;2.95;;;;;;;;;;5054855;28;20045;-70
2024/02/21 13:42:33;;;;;;;3.25;2.65;;;;;;;;;;5054563;28;20037;-71
2024/02/21 13:45:38;;;;;;;4.50;2.30;;;;;;;;;;5054696;28;20037;-73
2024/02/21 13:48:42;;;;;;;5.93;2.42;;;;;;;;;;5054557;28;20446;-73
2024/02/21 13:51:46;;;;;;;5.40;2.60;;;;;;;;;;5054440;28;20037;-71
2024/02/21 13:54:51;;;;;;;16.67;2.47;;;;;;;;;;5054794;28;20041;-69
2024/02/21 13:57:55;;;;;;;4.07;2.40;;;;;;;;;;5053785;28;20040;-72
2024/02/21 14:01:00;;;;;;;3.20;1.92;;;18.10;72.10;;;;;;5053725;28;20056;-71
2024/02/21 14:04:04;;;;;;;3.90;2.22;;;;;;;;;;5054084;28;20040;-70
2024/02/21 14:07:08;;;;;;;4.80;2.78;;;;;;;;;;5053822;28;20488;-72
2024/02/21 14:10:13;;;;;;;4.15;2.15;;;;;;;;;;5053582;28;20033;-70
2024/02/21 14:13:17;;;;;;;3.38;2.22;;;;;;;;;;5053591;28;20033;-72
2024/02/21 14:16:21;;;;;;;3.17;2.20;;;;;;;;;;5053494;28;20040;-71
2024/02/21 14:19:26;;;;;;;6.20;2.40;;;;;;;;;;5053853;28;20025;-72
2024/02/21 14:22:30;;;;;;;6.18;2.58;;;;;;;;;;5053297;28;20036;-72
2024/02/21 14:25:35;;;;;;;6.70;2.47;;;;;;;;;;5041671;28;20362;-72
2024/02/21 14:28:40;;;;;;;3.50;1.80;;;;;;;;;;5054660;28;20041;-74
2024/02/21 14:31:44;;;;;;;5.10;2.00;;;;;;;;;;5054429;28;20045;-74
2024/02/21 14:34:49;;;;;;;3.95;1.98;;;;;;;;;;5053675;28;20454;-74
2024/02/21 14:37:56;;;;;;;4.93;1.98;;;;;;;;;;5054573;28;20029;-73
2024/02/21 14:41:00;;;;;;;2.80;1.95;;;;;;;;;;5051955;28;20037;-70
2024/02/21 14:44:05;;;;;;;3.40;2.33;;;;;;;;;;5053360;28;20041;-70
2024/02/21 14:47:09;;;;;;;7.55;2.58;;;;;;;;;;5053068;28;20053;-71
2024/02/21 14:50:14;;;;;;;10.73;2.67;;;;;;;;;;5053754;28;20037;-71
2024/02/21 14:53:18;;;;;;;4.57;2.40;;;;;;;;;;5053385;28;20052;-69
2024/02/21 14:56:23;;;;;;;7.93;2.20;;;;;;;;;;5052984;28;20033;-70
2024/02/21 14:59:28;;;;;;;2.67;2.10;;;;;;;;;;5051624;28;20508;-70
2024/02/21 15:02:32;;;;;;;3.70;1.98;;;;;;;;;;5052833;28;20045;-70
2024/02/21 15:05:39;;;;;;;4.22;2.20;;;;;;;;;;5052315;28;20572;-71
2024/02/21 15:08:44;;;;;;;5.22;2.42;;;;;;;;;;5052658;28;20045;-71
2024/02/21 15:11:49;;;;;;;6.15;2.70;;;17.80;70.20;;;;;;5052435;28;20032;-71
2024/02/21 15:14:54;;;;;;;6.53;2.67;;;;;;;;;;5052560;28;20508;-72
2024/02/21 15:17:58;;;;;;;8.50;2.58;;;;;;;;;;5052487;28;20033;-72
2024/02/21 15:21:02;;;;;;;4.53;2.70;;;;;;;;;;5052967;28;20044;-69
2024/02/21 15:24:07;;;;;;;5.18;2.20;;;;;;;;;;5051331;28;20037;-69
2024/02/21 15:27:11;;;;;;;4.65;2.25;;;;;;;;;;5051891;28;20056;-70
2024/02/21 15:30:15;;;;;;;3.97;2.40;;;;;;;;;;5052097;28;20041;-72
2024/02/21 15:33:20;;;;;;;7.97;3.00;;;;;;;;;;5052134;28;20041;-69
2024/02/21 15:36:24;;;;;;;3.08;1.98;;;;;;;;;;5051832;28;20037;-69
2024/02/21 15:39:28;;;;;;;15.30;3.60;;;;;;;;;;5051705;28;20485;-70
2024/02/21 15:42:33;;;;;;;10.00;2.55;;;;;;;;;;5052037;28;20060;-73
2024/02/21 15:45:39;;;;;;;8.27;2.70;;;;;;;;;;5052046;28;20043;-71
2024/02/21 15:48:44;;;;;;;5.43;2.63;;;;;;;;;;5027980;28;20048;-72
2024/02/21 15:51:49;;;;;;;3.53;2.47;;;;;;;;;;5051007;28;20041;-71
2024/02/21 15:54:53;;;;;;;6.20;3.42;;;;;;;;;;5051512;28;20041;-70
2024/02/21 15:57:57;;;;;;;11.70;6.18;;;;;;;;;;5051402;28;20033;-70
2024/02/21 16:01:02;;;;;;;8.77;5.47;;;;;;;;;;5051561;28;20055;-71
2024/02/21 16:04:06;;;;;;;5.35;3.10;;;;;;;;;;5051735;28;20033;-72
2024/02/21 16:07:11;;;;;;;12.13;3.83;;;;;;;;;;5051146;28;20457;-71
2024/02/21 16:10:15;;;;;;;13.15;3.75;;;;;;;;;;5051408;28;20033;-73
2024/02/21 16:13:20;;;;;;;12.85;6.85;;;;;;;;;;5050601;28;20052;-71
2024/02/21 16:16:25;;;;;;;15.35;6.70;;;;;;;;;;5051449;28;20037;-72
2024/02/21 16:19:29;;;;;;;15.23;6.38;;;;;;;;;;5051434;28;20037;-71
2024/02/21 16:22:34;;;;;;;12.52;5.50;;;;;;;;;;5050816;28;20067;-73
2024/02/21 16:25:38;;;;;;;8.55;4.57;;;;;;;;;;5049833;28;20041;-73
2024/02/21 16:28:43;;;;;;;12.48;5.10;;;;;;;;;;5050180;28;20390;-71
2024/02/21 16:31:47;;;;;;;12.05;4.03;;;;;;;;;;5051385;28;20033;-70
2024/02/21 16:34:51;;;;;;;12.88;4.78;;;;;;;;;;5051210;28;20052;-71
2024/02/21 16:37:56;;;;;;;6.03;4.68;;;17.00;72.50;;;;;;5050539;28;20045;-72
2024/02/21 16:41:00;;;;;;;14.73;8.88;;;;;;;;;;5051114;28;20048;-71
2024/02/21 16:44:04;;;;;;;11.55;8.13;;;;;;;;;;5051183;28;20496;-71
2024/02/21 16:47:09;;;;;;;26.17;10.65;;;;;;;;;;5050993;28;20041;-71
2024/02/21 16:50:13;;;;;;;22.00;15.88;;;;;;;;;;5050822;28;20048;-71
2024/02/21 16:53:17;;;;;;;68.65;39.35;;;;;;;;;;5050796;28;20071;-70
2024/02/21 16:56:22;;;;;;;28.63;14.88;;;;;;;;;;5050889;28;20068;-70
2024/02/21 16:59:26;;;;;;;11.18;6.35;;;;;;;;;;5050747;28;20052;-70
2024/02/21 17:02:31;;;;;;;16.55;8.45;;;;;;;;;;5050557;28;20722;-70
2024/02/21 17:05:38;;;;;;;13.80;8.77;;;16.50;73.90;;;;;;5052381;28;20373;-69
2024/02/21 17:08:42;;;;;;;21.25;8.85;;;;;;;;;;5054188;28;20051;-67
2024/02/21 17:11:47;;;;;;;22.60;7.15;;;;;;;;;;5054713;28;20033;-75
2024/02/21 17:14:51;;;;;;;24.95;7.53;;;;;;;;;;5054392;28;20041;-72
2024/02/21 17:17:55;;;;;;;31.98;8.45;;;;;;;;;;5054552;28;20067;-69
2024/02/21 17:21:00;;;;;;;21.67;10.73;;;;;;;;;;5054114;28;20041;-72